sensor_id;sensor_type;location;lat;lon;timestamp;P1;durP1;ratioP1;P2;durP2;ratioP2
66012;SDS011;52783;50.502;8.190;2023-04-24T00:00:24;1.70;;;1.60;;
66012;SDS011;52783;50.502;8.190;2023-04-24T00:02:50;3.45;;;1.90;;
66012;SDS011;52783;50.502;8.190;2023-04-24T00:05:16;1.70;;;1.55;;
66012;SDS011;52783;50.502;8.190;2023-04-24T00:07:42;2.40;;;1.70;;
66012;SDS011;52783;50.502;8.190;2023-04-24T00:10:09;2.25;;;1.83;;
66012;SDS011;52783;50.502;8.190;2023-04-24T00:12:35;1.90;;;1.75;;
66012;SDS011;52783;50.502;8.190;2023-04-24T00:15:01;4.57;;;1.70;;
66012;SDS011;52783;50.502;8.190;2023-04-24T00:17:28;3.80;;;1.48;;
66012;SDS011;52783;50.502;8.190;2023-04-24T00:19:53;1.85;;;1.70;;
66012;SDS011;52783;50.502;8.190;2023-04-24T00:22:23;4.05;;;1.98;;
66012;SDS011;52783;50.502;8.190;2023-04-24T00:24:50;1.70;;;1.60;;
66012;SDS011;52783;50.502;8.190;2023-04-24T00:27:16;6.30;;;1.85;;
66012;SDS011;52783;50.502;8.190;2023-04-24T00:29:42;2.75;;;1.60;;
66012;SDS011;52783;50.502;8.190;2023-04-24T00:32:07;2.53;;;1.50;;
66012;SDS011;52783;50.502;8.190;2023-04-24T00:34:33;1.83;;;1.40;;
66012;SDS011;52783;50.502;8.190;2023-04-24T00:36:58;3.40;;;1.42;;
66012;SDS011;52783;50.502;8.190;2023-04-24T00:39:24;3.03;;;1.27;;
66012;SDS011;52783;50.502;8.190;2023-04-24T00:41:50;2.42;;;1.60;;
66012;SDS011;52783;50.502;8.190;2023-04-24T00:44:16;4.43;;;1.95;;
66012;SDS011;52783;50.502;8.190;2023-04-24T00:46:42;1.58;;;1.48;;
66012;SDS011;52783;50.502;8.190;2023-04-24T00:49:07;5.65;;;1.60;;
66012;SDS011;52783;50.502;8.190;2023-04-24T00:51:33;1.90;;;1.33;;
66012;SDS011;52783;50.502;8.190;2023-04-24T00:53:59;1.40;;;1.27;;
66012;SDS011;52783;50.502;8.190;2023-04-24T00:56:25;1.58;;;1.38;;
66012;SDS011;52783;50.502;8.190;2023-04-24T00:58:51;3.70;;;1.48;;
66012;SDS011;52783;50.502;8.190;2023-04-24T01:01:18;1.27;;;1.23;;
66012;SDS011;52783;50.502;8.190;2023-04-24T01:03:45;2.65;;;1.55;;
66012;SDS011;52783;50.502;8.190;2023-04-24T01:06:11;4.35;;;1.83;;
66012;SDS011;52783;50.502;8.190;2023-04-24T01:08:38;3.72;;;1.73;;
66012;SDS011;52783;50.502;8.190;2023-04-24T01:11:05;3.45;;;1.55;;
66012;SDS011;52783;50.502;8.190;2023-04-24T01:13:31;1.83;;;1.70;;
66012;SDS011;52783;50.502;8.190;2023-04-24T01:15:58;4.82;;;1.58;;
66012;SDS011;52783;50.502;8.190;2023-04-24T01:18:24;6.65;;;2.10;;
66012;SDS011;52783;50.502;8.190;2023-04-24T01:20:50;3.33;;;1.70;;
66012;SDS011;52783;50.502;8.190;2023-04-24T01:23:18;2.40;;;2.15;;
66012;SDS011;52783;50.502;8.190;2023-04-24T01:25:43;1.83;;;1.67;;
66012;SDS011;52783;50.502;8.190;2023-04-24T01:28:09;3.85;;;1.83;;
66012;SDS011;52783;50.502;8.190;2023-04-24T01:30:35;2.22;;;2.05;;
66012;SDS011;52783;50.502;8.190;2023-04-24T01:33:01;3.78;;;2.00;;
66012;SDS011;52783;50.502;8.190;2023-04-24T01:35:27;3.90;;;1.95;;
66012;SDS011;52783;50.502;8.190;2023-04-24T01:37:53;2.45;;;1.90;;
66012;SDS011;52783;50.502;8.190;2023-04-24T01:40:18;3.10;;;1.80;;
66012;SDS011;52783;50.502;8.190;2023-04-24T01:42:44;5.90;;;1.98;;
66012;SDS011;52783;50.502;8.190;2023-04-24T01:45:11;2.35;;;1.95;;
66012;SDS011;52783;50.502;8.190;2023-04-24T01:47:38;2.15;;;1.92;;
66012;SDS011;52783;50.502;8.190;2023-04-24T01:50:04;2.78;;;2.00;;
66012;SDS011;52783;50.502;8.190;2023-04-24T01:52:30;1.95;;;1.48;;
66012;SDS011;52783;50.502;8.190;2023-04-24T01:54:59;2.38;;;2.00;;
66012;SDS011;52783;50.502;8.190;2023-04-24T01:57:25;3.97;;;1.90;;
66012;SDS011;52783;50.502;8.190;2023-04-24T01:59:51;2.08;;;1.90;;
66012;SDS011;52783;50.502;8.190;2023-04-24T02:02:16;4.50;;;2.10;;
66012;SDS011;52783;50.502;8.190;2023-04-24T02:04:42;3.78;;;2.00;;
66012;SDS011;52783;50.502;8.190;2023-04-24T02:07:08;3.03;;;1.75;;
66012;SDS011;52783;50.502;8.190;2023-04-24T02:09:34;2.83;;;1.80;;
66012;SDS011;52783;50.502;8.190;2023-04-24T02:11:59;3.25;;;1.92;;
66012;SDS011;52783;50.502;8.190;2023-04-24T02:14:25;3.40;;;1.92;;
66012;SDS011;52783;50.502;8.190;2023-04-24T02:16:51;2.95;;;1.90;;
66012;SDS011;52783;50.502;8.190;2023-04-24T02:19:18;2.58;;;1.63;;
66012;SDS011;52783;50.502;8.190;2023-04-24T02:21:43;3.70;;;1.90;;
66012;SDS011;52783;50.502;8.190;2023-04-24T02:24:09;1.88;;;1.70;;
66012;SDS011;52783;50.502;8.190;2023-04-24T02:26:35;2.97;;;1.90;;
66012;SDS011;52783;50.502;8.190;2023-04-24T02:29:00;1.73;;;1.63;;
66012;SDS011;52783;50.502;8.190;2023-04-24T02:31:26;2.40;;;1.90;;
66012;SDS011;52783;50.502;8.190;2023-04-24T02:33:52;4.90;;;2.13;;
66012;SDS011;52783;50.502;8.190;2023-04-24T02:36:18;1.60;;;1.50;;
66012;SDS011;52783;50.502;8.190;2023-04-24T02:38:43;3.78;;;1.80;;
66012;SDS011;52783;50.502;8.190;2023-04-24T02:41:09;2.28;;;1.77;;
66012;SDS011;52783;50.502;8.190;2023-04-24T02:43:35;1.83;;;1.70;;
66012;SDS011;52783;50.502;8.190;2023-04-24T02:46:00;1.70;;;1.60;;
66012;SDS011;52783;50.502;8.190;2023-04-24T02:48:26;1.95;;;1.52;;
66012;SDS011;52783;50.502;8.190;2023-04-24T02:50:51;5.10;;;1.65;;
66012;SDS011;52783;50.502;8.190;2023-04-24T02:53:18;2.33;;;1.70;;
66012;SDS011;52783;50.502;8.190;2023-04-24T02:55:43;1.77;;;1.67;;
66012;SDS011;52783;50.502;8.190;2023-04-24T02:58:10;2.15;;;1.90;;
66012;SDS011;52783;50.502;8.190;2023-04-24T03:00:38;1.90;;;1.42;;
66012;SDS011;52783;50.502;8.190;2023-04-24T03:03:03;1.73;;;1.63;;
66012;SDS011;52783;50.502;8.190;2023-04-24T03:05:30;8.50;;;4.68;;
66012;SDS011;52783;50.502;8.190;2023-04-24T03:07:56;10.00;;;6.32;;
66012;SDS011;52783;50.502;8.190;2023-04-24T03:10:21;4.55;;;2.65;;
66012;SDS011;52783;50.502;8.190;2023-04-24T03:12:50;4.15;;;3.22;;
66012;SDS011;52783;50.502;8.190;2023-04-24T03:15:16;6.90;;;3.55;;
66012;SDS011;52783;50.502;8.190;2023-04-24T03:17:41;19.33;;;7.60;;
66012;SDS011;52783;50.502;8.190;2023-04-24T03:20:08;11.00;;;6.10;;
66012;SDS011;52783;50.502;8.190;2023-04-24T03:22:34;7.25;;;3.80;;
66012;SDS011;52783;50.502;8.190;2023-04-24T03:25:00;3.08;;;2.20;;
66012;SDS011;52783;50.502;8.190;2023-04-24T03:27:26;2.30;;;2.10;;
66012;SDS011;52783;50.502;8.190;2023-04-24T03:29:51;2.72;;;2.30;;
66012;SDS011;52783;50.502;8.190;2023-04-24T03:32:20;3.25;;;1.75;;
66012;SDS011;52783;50.502;8.190;2023-04-24T03:34:48;4.38;;;1.83;;
66012;SDS011;52783;50.502;8.190;2023-04-24T03:37:15;1.80;;;1.70;;
66012;SDS011;52783;50.502;8.190;2023-04-24T03:39:41;1.80;;;1.70;;
66012;SDS011;52783;50.502;8.190;2023-04-24T03:42:06;2.78;;;1.70;;
66012;SDS011;52783;50.502;8.190;2023-04-24T03:44:33;2.05;;;1.40;;
66012;SDS011;52783;50.502;8.190;2023-04-24T03:46:59;1.65;;;1.55;;
66012;SDS011;52783;50.502;8.190;2023-04-24T03:49:25;2.33;;;1.52;;
66012;SDS011;52783;50.502;8.190;2023-04-24T03:51:50;8.35;;;1.77;;
66012;SDS011;52783;50.502;8.190;2023-04-24T03:54:17;1.98;;;1.75;;
66012;SDS011;52783;50.502;8.190;2023-04-24T03:56:43;1.80;;;1.70;;
66012;SDS011;52783;50.502;8.190;2023-04-24T03:59:09;1.88;;;1.70;;
66012;SDS011;52783;50.502;8.190;2023-04-24T04:01:35;1.95;;;1.75;;
66012;SDS011;52783;50.502;8.190;2023-04-24T04:04:04;1.70;;;1.60;;
66012;SDS011;52783;50.502;8.190;2023-04-24T04:06:33;1.50;;;1.40;;
66012;SDS011;52783;50.502;8.190;2023-04-24T04:08:59;5.00;;;1.80;;
66012;SDS011;52783;50.502;8.190;2023-04-24T04:11:25;2.40;;;2.17;;
66012;SDS011;52783;50.502;8.190;2023-04-24T04:13:51;3.90;;;2.10;;
66012;SDS011;52783;50.502;8.190;2023-04-24T04:16:17;3.15;;;2.10;;
66012;SDS011;52783;50.502;8.190;2023-04-24T04:18:42;4.28;;;2.10;;
66012;SDS011;52783;50.502;8.190;2023-04-24T04:21:08;2.25;;;2.05;;
66012;SDS011;52783;50.502;8.190;2023-04-24T04:23:35;2.03;;;1.90;;
66012;SDS011;52783;50.502;8.190;2023-04-24T04:26:01;2.42;;;2.08;;
66012;SDS011;52783;50.502;8.190;2023-04-24T04:28:26;3.38;;;2.22;;
66012;SDS011;52783;50.502;8.190;2023-04-24T04:30:52;5.57;;;2.00;;
66012;SDS011;52783;50.502;8.190;2023-04-24T04:33:22;2.97;;;2.30;;
66012;SDS011;52783;50.502;8.190;2023-04-24T04:35:48;3.65;;;2.17;;
66012;SDS011;52783;50.502;8.190;2023-04-24T04:38:14;3.83;;;2.22;;
66012;SDS011;52783;50.502;8.190;2023-04-24T04:40:42;2.80;;;2.25;;
66012;SDS011;52783;50.502;8.190;2023-04-24T04:43:08;2.92;;;2.13;;
66012;SDS011;52783;50.502;8.190;2023-04-24T04:45:33;5.30;;;2.17;;
66012;SDS011;52783;50.502;8.190;2023-04-24T04:47:59;8.48;;;2.38;;
66012;SDS011;52783;50.502;8.190;2023-04-24T04:50:26;2.95;;;2.30;;
66012;SDS011;52783;50.502;8.190;2023-04-24T04:52:52;3.38;;;2.55;;
66012;SDS011;52783;50.502;8.190;2023-04-24T04:55:18;3.50;;;2.33;;
66012;SDS011;52783;50.502;8.190;2023-04-24T04:57:45;3.92;;;2.30;;
66012;SDS011;52783;50.502;8.190;2023-04-24T05:00:11;3.63;;;2.40;;
66012;SDS011;52783;50.502;8.190;2023-04-24T05:02:37;7.53;;;2.53;;
66012;SDS011;52783;50.502;8.190;2023-04-24T05:05:04;7.80;;;2.70;;
66012;SDS011;52783;50.502;8.190;2023-04-24T05:07:30;6.20;;;2.75;;
66012;SDS011;52783;50.502;8.190;2023-04-24T05:09:56;4.20;;;2.60;;
66012;SDS011;52783;50.502;8.190;2023-04-24T05:12:22;4.75;;;3.00;;
66012;SDS011;52783;50.502;8.190;2023-04-24T05:14:47;5.00;;;2.47;;
66012;SDS011;52783;50.502;8.190;2023-04-24T05:17:13;7.55;;;2.70;;
66012;SDS011;52783;50.502;8.190;2023-04-24T05:19:38;4.22;;;2.47;;
66012;SDS011;52783;50.502;8.190;2023-04-24T05:22:04;3.38;;;2.30;;
66012;SDS011;52783;50.502;8.190;2023-04-24T05:24:32;5.97;;;2.58;;
66012;SDS011;52783;50.502;8.190;2023-04-24T05:26:58;5.43;;;2.58;;
66012;SDS011;52783;50.502;8.190;2023-04-24T05:29:24;2.30;;;2.10;;
66012;SDS011;52783;50.502;8.190;2023-04-24T05:31:51;6.15;;;2.83;;
66012;SDS011;52783;50.502;8.190;2023-04-24T05:34:17;7.32;;;2.60;;
66012;SDS011;52783;50.502;8.190;2023-04-24T05:36:43;4.40;;;2.50;;
66012;SDS011;52783;50.502;8.190;2023-04-24T05:39:08;3.33;;;2.50;;
66012;SDS011;52783;50.502;8.190;2023-04-24T05:41:34;2.35;;;2.15;;
66012;SDS011;52783;50.502;8.190;2023-04-24T05:44:00;5.90;;;2.50;;
66012;SDS011;52783;50.502;8.190;2023-04-24T05:46:25;4.72;;;2.50;;
66012;SDS011;52783;50.502;8.190;2023-04-24T05:48:51;2.25;;;2.05;;
66012;SDS011;52783;50.502;8.190;2023-04-24T05:51:16;3.17;;;2.08;;
66012;SDS011;52783;50.502;8.190;2023-04-24T05:53:42;2.35;;;2.15;;
66012;SDS011;52783;50.502;8.190;2023-04-24T05:56:08;2.60;;;2.20;;
66012;SDS011;52783;50.502;8.190;2023-04-24T05:58:33;2.00;;;1.90;;
66012;SDS011;52783;50.502;8.190;2023-04-24T06:00:59;2.70;;;2.08;;
66012;SDS011;52783;50.502;8.190;2023-04-24T06:03:26;3.35;;;2.30;;
66012;SDS011;52783;50.502;8.190;2023-04-24T06:05:52;6.93;;;2.42;;
66012;SDS011;52783;50.502;8.190;2023-04-24T06:08:18;3.40;;;2.75;;
66012;SDS011;52783;50.502;8.190;2023-04-24T06:10:44;3.90;;;2.90;;
66012;SDS011;52783;50.502;8.190;2023-04-24T06:13:10;3.72;;;3.10;;
66012;SDS011;52783;50.502;8.190;2023-04-24T06:15:36;4.70;;;3.05;;
66012;SDS011;52783;50.502;8.190;2023-04-24T06:18:02;5.15;;;3.40;;
66012;SDS011;52783;50.502;8.190;2023-04-24T06:20:28;3.20;;;2.90;;
66012;SDS011;52783;50.502;8.190;2023-04-24T06:22:53;4.43;;;3.05;;
66012;SDS011;52783;50.502;8.190;2023-04-24T06:25:19;5.88;;;3.40;;
66012;SDS011;52783;50.502;8.190;2023-04-24T06:27:45;7.13;;;3.50;;
66012;SDS011;52783;50.502;8.190;2023-04-24T06:30:11;4.35;;;3.47;;
66012;SDS011;52783;50.502;8.190;2023-04-24T06:32:36;7.18;;;3.70;;
66012;SDS011;52783;50.502;8.190;2023-04-24T06:35:02;3.60;;;3.22;;
66012;SDS011;52783;50.502;8.190;2023-04-24T06:37:28;6.72;;;3.33;;
66012;SDS011;52783;50.502;8.190;2023-04-24T06:39:54;5.53;;;3.70;;
66012;SDS011;52783;50.502;8.190;2023-04-24T06:42:19;4.88;;;3.90;;
66012;SDS011;52783;50.502;8.190;2023-04-24T06:44:49;5.90;;;3.58;;
66012;SDS011;52783;50.502;8.190;2023-04-24T06:47:15;7.50;;;4.00;;
66012;SDS011;52783;50.502;8.190;2023-04-24T06:49:41;5.30;;;4.03;;
66012;SDS011;52783;50.502;8.190;2023-04-24T06:52:07;6.47;;;4.32;;
66012;SDS011;52783;50.502;8.190;2023-04-24T06:54:33;6.82;;;3.97;;
66012;SDS011;52783;50.502;8.190;2023-04-24T06:56:59;6.60;;;4.18;;
66012;SDS011;52783;50.502;8.190;2023-04-24T06:59:28;8.15;;;4.20;;
66012;SDS011;52783;50.502;8.190;2023-04-24T07:01:54;5.35;;;3.95;;
66012;SDS011;52783;50.502;8.190;2023-04-24T07:04:20;5.85;;;3.97;;
66012;SDS011;52783;50.502;8.190;2023-04-24T07:06:46;7.57;;;3.65;;
66012;SDS011;52783;50.502;8.190;2023-04-24T07:09:12;14.88;;;3.97;;
66012;SDS011;52783;50.502;8.190;2023-04-24T07:11:39;10.35;;;5.85;;
66012;SDS011;52783;50.502;8.190;2023-04-24T07:14:06;4.65;;;3.90;;
66012;SDS011;52783;50.502;8.190;2023-04-24T07:16:32;4.47;;;3.90;;
66012;SDS011;52783;50.502;8.190;2023-04-24T07:18:57;6.45;;;4.28;;
66012;SDS011;52783;50.502;8.190;2023-04-24T07:21:23;7.22;;;3.88;;
66012;SDS011;52783;50.502;8.190;2023-04-24T07:23:49;5.63;;;4.07;;
66012;SDS011;52783;50.502;8.190;2023-04-24T07:26:15;6.00;;;3.75;;
66012;SDS011;52783;50.502;8.190;2023-04-24T07:28:41;7.68;;;4.28;;
66012;SDS011;52783;50.502;8.190;2023-04-24T07:31:07;4.30;;;3.72;;
66012;SDS011;52783;50.502;8.190;2023-04-24T07:33:33;5.93;;;4.03;;
66012;SDS011;52783;50.502;8.190;2023-04-24T07:35:59;7.70;;;4.18;;
66012;SDS011;52783;50.502;8.190;2023-04-24T07:38:25;6.35;;;3.60;;
66012;SDS011;52783;50.502;8.190;2023-04-24T07:40:51;5.82;;;3.72;;
66012;SDS011;52783;50.502;8.190;2023-04-24T07:43:16;8.70;;;4.18;;
66012;SDS011;52783;50.502;8.190;2023-04-24T07:45:42;7.28;;;3.95;;
66012;SDS011;52783;50.502;8.190;2023-04-24T07:48:08;4.53;;;3.67;;
66012;SDS011;52783;50.502;8.190;2023-04-24T07:50:34;9.15;;;4.20;;
66012;SDS011;52783;50.502;8.190;2023-04-24T07:53:01;6.53;;;3.67;;
66012;SDS011;52783;50.502;8.190;2023-04-24T07:55:27;5.68;;;4.00;;
66012;SDS011;52783;50.502;8.190;2023-04-24T07:57:52;6.88;;;3.70;;
66012;SDS011;52783;50.502;8.190;2023-04-24T08:00:18;6.90;;;3.63;;
66012;SDS011;52783;50.502;8.190;2023-04-24T08:02:44;9.55;;;4.03;;
66012;SDS011;52783;50.502;8.190;2023-04-24T08:05:10;5.75;;;4.00;;
66012;SDS011;52783;50.502;8.190;2023-04-24T08:07:35;4.93;;;3.65;;
66012;SDS011;52783;50.502;8.190;2023-04-24T08:10:01;5.90;;;4.25;;
66012;SDS011;52783;50.502;8.190;2023-04-24T08:12:28;4.53;;;3.50;;
66012;SDS011;52783;50.502;8.190;2023-04-24T08:14:54;4.95;;;3.65;;
66012;SDS011;52783;50.502;8.190;2023-04-24T08:17:20;4.00;;;3.30;;
66012;SDS011;52783;50.502;8.190;2023-04-24T08:19:45;4.40;;;3.58;;
66012;SDS011;52783;50.502;8.190;2023-04-24T08:22:16;9.40;;;3.20;;
66012;SDS011;52783;50.502;8.190;2023-04-24T08:24:42;5.70;;;2.53;;
66012;SDS011;52783;50.502;8.190;2023-04-24T08:27:08;4.80;;;3.00;;
66012;SDS011;52783;50.502;8.190;2023-04-24T08:29:35;4.15;;;2.80;;
66012;SDS011;52783;50.502;8.190;2023-04-24T08:32:01;3.20;;;2.90;;
66012;SDS011;52783;50.502;8.190;2023-04-24T08:34:27;4.72;;;2.80;;
66012;SDS011;52783;50.502;8.190;2023-04-24T08:36:52;2.53;;;2.33;;
66012;SDS011;52783;50.502;8.190;2023-04-24T08:39:18;4.25;;;2.20;;
66012;SDS011;52783;50.502;8.190;2023-04-24T08:41:43;3.20;;;2.72;;
66012;SDS011;52783;50.502;8.190;2023-04-24T08:44:10;4.13;;;2.30;;
66012;SDS011;52783;50.502;8.190;2023-04-24T08:46:37;4.18;;;2.35;;
66012;SDS011;52783;50.502;8.190;2023-04-24T08:49:04;4.47;;;2.63;;
66012;SDS011;52783;50.502;8.190;2023-04-24T08:51:30;2.40;;;2.15;;
66012;SDS011;52783;50.502;8.190;2023-04-24T08:53:57;3.78;;;2.05;;
66012;SDS011;52783;50.502;8.190;2023-04-24T08:56:23;3.25;;;2.40;;
66012;SDS011;52783;50.502;8.190;2023-04-24T08:58:53;2.20;;;2.10;;
66012;SDS011;52783;50.502;8.190;2023-04-24T09:01:20;2.90;;;2.17;;
66012;SDS011;52783;50.502;8.190;2023-04-24T09:03:47;2.65;;;2.13;;
66012;SDS011;52783;50.502;8.190;2023-04-24T09:06:14;1.77;;;1.67;;
66012;SDS011;52783;50.502;8.190;2023-04-24T09:08:41;2.65;;;2.20;;
66012;SDS011;52783;50.502;8.190;2023-04-24T09:11:08;2.17;;;1.98;;
66012;SDS011;52783;50.502;8.190;2023-04-24T09:13:35;2.08;;;1.92;;
66012;SDS011;52783;50.502;8.190;2023-04-24T09:16:01;4.05;;;1.88;;
66012;SDS011;52783;50.502;8.190;2023-04-24T09:18:26;2.28;;;2.00;;
66012;SDS011;52783;50.502;8.190;2023-04-24T09:21:00;6.35;;;2.10;;
66012;SDS011;52783;50.502;8.190;2023-04-24T09:23:28;2.50;;;2.30;;
66012;SDS011;52783;50.502;8.190;2023-04-24T09:25:55;4.72;;;2.00;;
66012;SDS011;52783;50.502;8.190;2023-04-24T09:31:04;4.15;;;2.17;;
66012;SDS011;52783;50.502;8.190;2023-04-24T09:33:32;2.40;;;2.08;;
66012;SDS011;52783;50.502;8.190;2023-04-24T09:35:58;2.58;;;2.03;;
66012;SDS011;52783;50.502;8.190;2023-04-24T09:38:34;2.10;;;1.92;;
66012;SDS011;52783;50.502;8.190;2023-04-24T09:41:01;3.63;;;2.10;;
66012;SDS011;52783;50.502;8.190;2023-04-24T09:43:32;2.10;;;1.90;;
66012;SDS011;52783;50.502;8.190;2023-04-24T09:45:58;4.82;;;1.98;;
66012;SDS011;52783;50.502;8.190;2023-04-24T09:48:29;3.97;;;2.28;;
66012;SDS011;52783;50.502;8.190;2023-04-24T09:50:56;2.50;;;1.90;;
66012;SDS011;52783;50.502;8.190;2023-04-24T09:53:25;5.10;;;2.10;;
66012;SDS011;52783;50.502;8.190;2023-04-24T09:55:51;1.73;;;1.63;;
66012;SDS011;52783;50.502;8.190;2023-04-24T09:58:18;1.48;;;1.38;;
66012;SDS011;52783;50.502;8.190;2023-04-24T10:00:49;0.98;;;0.98;;
66012;SDS011;52783;50.502;8.190;2023-04-24T10:03:18;3.60;;;1.40;;
66012;SDS011;52783;50.502;8.190;2023-04-24T10:05:44;1.65;;;1.48;;
66012;SDS011;52783;50.502;8.190;2023-04-24T10:08:11;1.65;;;1.27;;
66012;SDS011;52783;50.502;8.190;2023-04-24T10:10:39;3.30;;;1.10;;
66012;SDS011;52783;50.502;8.190;2023-04-24T10:13:08;2.13;;;1.38;;
66012;SDS011;52783;50.502;8.190;2023-04-24T10:15:35;2.35;;;1.27;;
66012;SDS011;52783;50.502;8.190;2023-04-24T10:18:02;1.05;;;1.05;;
66012;SDS011;52783;50.502;8.190;2023-04-24T10:20:30;0.60;;;0.60;;
66012;SDS011;52783;50.502;8.190;2023-04-24T10:22:56;0.80;;;0.80;;
66012;SDS011;52783;50.502;8.190;2023-04-24T10:25:23;0.73;;;0.73;;
66012;SDS011;52783;50.502;8.190;2023-04-24T10:27:51;0.60;;;0.60;;
66012;SDS011;52783;50.502;8.190;2023-04-24T10:30:18;0.60;;;0.60;;
66012;SDS011;52783;50.502;8.190;2023-04-24T10:32:45;0.60;;;0.60;;
66012;SDS011;52783;50.502;8.190;2023-04-24T10:35:14;0.50;;;0.50;;
66012;SDS011;52783;50.502;8.190;2023-04-24T10:37:43;0.65;;;0.65;;
66012;SDS011;52783;50.502;8.190;2023-04-24T10:40:32;0.75;;;0.60;;
66012;SDS011;52783;50.502;8.190;2023-04-24T10:42:59;0.88;;;0.63;;
66012;SDS011;52783;50.502;8.190;2023-04-24T10:45:28;2.00;;;0.80;;
66012;SDS011;52783;50.502;8.190;2023-04-24T10:50:25;2.08;;;0.60;;
66012;SDS011;52783;50.502;8.190;2023-04-24T10:52:51;1.55;;;0.73;;
66012;SDS011;52783;50.502;8.190;2023-04-24T10:58:11;1.20;;;1.10;;
66012;SDS011;52783;50.502;8.190;2023-04-24T11:00:37;0.80;;;0.80;;
66012;SDS011;52783;50.502;8.190;2023-04-24T11:03:05;2.20;;;0.90;;
66012;SDS011;52783;50.502;8.190;2023-04-24T11:05:50;1.00;;;1.00;;
66012;SDS011;52783;50.502;8.190;2023-04-24T11:11:00;0.95;;;0.95;;
66012;SDS011;52783;50.502;8.190;2023-04-24T11:14:01;0.70;;;0.70;;
66012;SDS011;52783;50.502;8.190;2023-04-24T11:21:46;3.65;;;1.00;;
66012;SDS011;52783;50.502;8.190;2023-04-24T11:24:38;1.05;;;0.85;;
66012;SDS011;52783;50.502;8.190;2023-04-24T11:29:43;0.90;;;0.90;;
66012;SDS011;52783;50.502;8.190;2023-04-24T11:32:35;0.75;;;0.75;;
66012;SDS011;52783;50.502;8.190;2023-04-24T11:37:43;0.80;;;0.80;;
66012;SDS011;52783;50.502;8.190;2023-04-24T11:40:14;0.98;;;0.90;;
66012;SDS011;52783;50.502;8.190;2023-04-24T11:42:41;1.25;;;1.00;;
66012;SDS011;52783;50.502;8.190;2023-04-24T11:45:11;0.93;;;0.93;;
66012;SDS011;52783;50.502;8.190;2023-04-24T11:47:42;1.20;;;0.97;;
66012;SDS011;52783;50.502;8.190;2023-04-24T11:50:09;1.30;;;1.20;;
66012;SDS011;52783;50.502;8.190;2023-04-24T11:52:43;1.40;;;1.30;;
66012;SDS011;52783;50.502;8.190;2023-04-24T11:57:38;2.08;;;1.42;;
66012;SDS011;52783;50.502;8.190;2023-04-24T12:00:09;2.03;;;1.50;;
66012;SDS011;52783;50.502;8.190;2023-04-24T12:02:40;2.13;;;1.92;;
66012;SDS011;52783;50.502;8.190;2023-04-24T12:05:06;2.10;;;2.00;;
66012;SDS011;52783;50.502;8.190;2023-04-24T12:07:31;2.90;;;2.03;;
66012;SDS011;52783;50.502;8.190;2023-04-24T12:10:07;4.53;;;2.13;;
66012;SDS011;52783;50.502;8.190;2023-04-24T12:12:34;2.88;;;1.80;;
66012;SDS011;52783;50.502;8.190;2023-04-24T12:15:00;4.78;;;2.08;;
66012;SDS011;52783;50.502;8.190;2023-04-24T12:17:27;6.85;;;2.45;;
66012;SDS011;52783;50.502;8.190;2023-04-24T12:20:02;8.10;;;2.42;;
66012;SDS011;52783;50.502;8.190;2023-04-24T12:22:49;3.38;;;2.20;;
66012;SDS011;52783;50.502;8.190;2023-04-24T12:25:19;4.20;;;2.40;;
66012;SDS011;52783;50.502;8.190;2023-04-24T12:27:45;3.80;;;2.47;;
66012;SDS011;52783;50.502;8.190;2023-04-24T12:30:13;3.88;;;2.25;;
66012;SDS011;52783;50.502;8.190;2023-04-24T12:32:40;3.55;;;2.38;;
66012;SDS011;52783;50.502;8.190;2023-04-24T12:35:19;2.60;;;2.40;;
66012;SDS011;52783;50.502;8.190;2023-04-24T12:37:46;3.22;;;2.75;;
66012;SDS011;52783;50.502;8.190;2023-04-24T12:40:12;5.82;;;3.05;;
66012;SDS011;52783;50.502;8.190;2023-04-24T12:42:43;6.85;;;2.97;;
66012;SDS011;52783;50.502;8.190;2023-04-24T12:45:14;6.68;;;2.80;;
66012;SDS011;52783;50.502;8.190;2023-04-24T12:47:40;4.78;;;3.10;;
66012;SDS011;52783;50.502;8.190;2023-04-24T12:50:08;6.50;;;2.90;;
66012;SDS011;52783;50.502;8.190;2023-04-24T12:52:36;5.07;;;3.38;;
66012;SDS011;52783;50.502;8.190;2023-04-24T12:55:02;5.13;;;3.20;;
66012;SDS011;52783;50.502;8.190;2023-04-24T12:57:29;4.35;;;3.00;;
66012;SDS011;52783;50.502;8.190;2023-04-24T12:59:56;6.22;;;3.17;;
66012;SDS011;52783;50.502;8.190;2023-04-24T13:02:23;3.72;;;3.10;;
66012;SDS011;52783;50.502;8.190;2023-04-24T13:04:50;4.82;;;3.03;;
66012;SDS011;52783;50.502;8.190;2023-04-24T13:07:16;5.90;;;3.25;;
66012;SDS011;52783;50.502;8.190;2023-04-24T13:09:43;6.20;;;3.17;;
66012;SDS011;52783;50.502;8.190;2023-04-24T13:12:09;4.78;;;3.13;;
66012;SDS011;52783;50.502;8.190;2023-04-24T13:14:36;6.32;;;3.75;;
66012;SDS011;52783;50.502;8.190;2023-04-24T13:17:02;5.70;;;3.58;;
66012;SDS011;52783;50.502;8.190;2023-04-24T13:19:28;4.65;;;3.13;;
66012;SDS011;52783;50.502;8.190;2023-04-24T13:21:55;5.72;;;3.20;;
66012;SDS011;52783;50.502;8.190;2023-04-24T13:24:22;5.50;;;3.22;;
66012;SDS011;52783;50.502;8.190;2023-04-24T13:26:51;6.57;;;3.35;;
66012;SDS011;52783;50.502;8.190;2023-04-24T13:29:17;7.10;;;3.90;;
66012;SDS011;52783;50.502;8.190;2023-04-24T13:31:43;5.45;;;3.70;;
66012;SDS011;52783;50.502;8.190;2023-04-24T13:34:09;6.65;;;3.72;;
66012;SDS011;52783;50.502;8.190;2023-04-24T13:36:35;6.07;;;3.10;;
66012;SDS011;52783;50.502;8.190;2023-04-24T13:39:00;8.18;;;3.72;;
66012;SDS011;52783;50.502;8.190;2023-04-24T13:41:26;5.78;;;3.47;;
66012;SDS011;52783;50.502;8.190;2023-04-24T13:43:52;4.78;;;3.08;;
66012;SDS011;52783;50.502;8.190;2023-04-24T13:46:17;4.85;;;3.40;;
66012;SDS011;52783;50.502;8.190;2023-04-24T13:48:43;6.13;;;3.17;;
66012;SDS011;52783;50.502;8.190;2023-04-24T13:51:09;6.05;;;3.22;;
66012;SDS011;52783;50.502;8.190;2023-04-24T13:53:34;8.25;;;3.20;;
66012;SDS011;52783;50.502;8.190;2023-04-24T13:56:03;6.93;;;3.35;;
66012;SDS011;52783;50.502;8.190;2023-04-24T13:58:30;4.97;;;3.30;;
66012;SDS011;52783;50.502;8.190;2023-04-24T14:00:56;3.92;;;2.95;;
66012;SDS011;52783;50.502;8.190;2023-04-24T14:03:21;7.05;;;3.17;;
66012;SDS011;52783;50.502;8.190;2023-04-24T14:05:47;5.95;;;3.15;;
66012;SDS011;52783;50.502;8.190;2023-04-24T14:08:12;12.48;;;3.40;;
66012;SDS011;52783;50.502;8.190;2023-04-24T14:10:38;5.13;;;3.00;;
66012;SDS011;52783;50.502;8.190;2023-04-24T14:13:03;6.70;;;3.67;;
66012;SDS011;52783;50.502;8.190;2023-04-24T14:15:29;4.47;;;3.33;;
66012;SDS011;52783;50.502;8.190;2023-04-24T14:17:55;9.18;;;3.60;;
66012;SDS011;52783;50.502;8.190;2023-04-24T14:20:20;7.20;;;3.50;;
66012;SDS011;52783;50.502;8.190;2023-04-24T14:22:46;8.35;;;3.55;;
66012;SDS011;52783;50.502;8.190;2023-04-24T14:25:12;8.55;;;3.60;;
66012;SDS011;52783;50.502;8.190;2023-04-24T14:27:37;6.97;;;3.65;;
66012;SDS011;52783;50.502;8.190;2023-04-24T14:30:03;5.38;;;3.45;;
66012;SDS011;52783;50.502;8.190;2023-04-24T14:32:29;6.60;;;4.13;;
66012;SDS011;52783;50.502;8.190;2023-04-24T14:34:55;5.07;;;3.45;;
66012;SDS011;52783;50.502;8.190;2023-04-24T14:37:21;9.00;;;3.85;;
66012;SDS011;52783;50.502;8.190;2023-04-24T14:39:46;7.25;;;2.90;;
66012;SDS011;52783;50.502;8.190;2023-04-24T14:42:12;4.05;;;2.95;;
66012;SDS011;52783;50.502;8.190;2023-04-24T14:44:38;8.88;;;3.20;;
66012;SDS011;52783;50.502;8.190;2023-04-24T14:47:04;6.68;;;3.13;;
66012;SDS011;52783;50.502;8.190;2023-04-24T14:49:30;5.63;;;3.50;;
66012;SDS011;52783;50.502;8.190;2023-04-24T14:51:56;5.35;;;3.42;;
66012;SDS011;52783;50.502;8.190;2023-04-24T14:54:22;5.88;;;3.50;;
66012;SDS011;52783;50.502;8.190;2023-04-24T14:56:48;9.15;;;3.30;;
66012;SDS011;52783;50.502;8.190;2023-04-24T14:59:14;5.93;;;2.92;;
66012;SDS011;52783;50.502;8.190;2023-04-24T15:01:40;6.25;;;3.40;;
66012;SDS011;52783;50.502;8.190;2023-04-24T15:04:05;7.50;;;3.10;;
66012;SDS011;52783;50.502;8.190;2023-04-24T15:06:31;7.55;;;3.50;;
66012;SDS011;52783;50.502;8.190;2023-04-24T15:08:57;7.40;;;3.47;;